Christina G — ZCXO5 — position and weather

sailwx.info

Track history (hours):
 
Tides and Currents Weather Stations Pressure Air Temp Water Temp Dewpoint Dewpoint Depression Visibility Wind Speed Wind Dir Waves Ship Positions

Christina G

Last reported at 2016-Jul-22 15:24 UTC. Time now 2016-Jul-23 09:13 UTC.
Position N 39°34' E 002°38'.

Length 33 m; draft 2.5 m.

MMSI: 319032100.

Date/timePositionNaut miles runAvg speedWind from/ knotsBaromVisibWave heightAir tempDewpointWater temp
2016-Jul-22 15:24N 39°34' E 002°38'0 0.0
2016-Jul-22 14:33N 39°34' E 002°38'8 8.1
2016-Jul-22 13:33N 39°27' E 002°32'9 1.2
2016-Jul-22 06:20N 39°32' E 002°22'1 0.1
2016-Jul-21 23:30N 39°32' E 002°23'0 0.0
2016-Jul-21 21:30N 39°32' E 002°23'0 0.0
2016-Jul-21 15:29N 39°32' E 002°23'4 4.1
2016-Jul-21 14:27N 39°37' E 002°21'17 8.9
2016-Jul-21 12:33N 39°46' E 002°39'0 0.0
2016-Jul-21 11:33N 39°46' E 002°39'4 3.8
2016-Jul-21 10:33N 39°49' E 002°42'2 0.1
2016-Jul-20 17:33N 39°48' E 002°41'0 0.0
2016-Jul-20 16:33N 39°48' E 002°41'4 0.7
2016-Jul-20 11:14N 39°45' E 002°37'2 0.1
2016-Jul-19 18:11N 39°44' E 002°35'6 9.2
2016-Jul-19 17:32N 39°41' E 002°29'7 1.3
2016-Jul-19 12:32N 39°37' E 002°22'44 5.5
2016-Jul-19 04:31N 39°10' E 001°37'6 6.5
2016-Jul-19 03:33N 39°06' E 001°30'0 0.0
2016-Jul-19 01:21N 39°06' E 001°30'0 0.0
2016-Jul-19 00:30N 39°06' E 001°30'0 0.0
2016-Jul-18 23:33N 39°06' E 001°30'0 0.0
2016-Jul-18 22:32N 39°06' E 001°30'0 0.0
2016-Jul-18 21:32N 39°06' E 001°30'0 0.0
2016-Jul-18 20:20N 39°06' E 001°30'0 0.0
2016-Jul-18 19:30N 39°06' E 001°30'0 0.0
2016-Jul-18 18:16N 39°06' E 001°30'17 0.8
2016-Jul-17 20:17N 38°52' E 001°19'0 0.0
2016-Jul-17 19:33N 38°52' E 001°19'12 1.1
2016-Jul-17 09:07N 38°53' E 001°34'610.9
2016-Jul-17 08:33N 38°57' E 001°41'1110.6
2016-Jul-17 07:31N 39°03' E 001°52'1010.5
2016-Jul-17 06:33N 39°10' E 002°02'2110.6
2016-Jul-17 04:33N 39°24' E 002°23'7 0.4
2016-Jul-16 12:06N 39°27' E 002°30'4 8.1
2016-Jul-16 11:33N 39°30' E 002°35'4 4.4
2016-Jul-16 10:33N 39°34' E 002°38'0 0.0
2016-Jul-14 14:33N 39°34' E 002°38'1 1.1
2016-Jul-14 13:33N 39°33' E 002°38'3 3.0
2016-Jul-14 12:33N 39°32' E 002°35'0 0.0
2016-Jul-14 11:33N 39°32' E 002°35'0 0.0
2016-Jul-14 10:33N 39°32' E 002°35'1 0.5
2016-Jul-14 09:33N 39°32' E 002°34'0 0.0
2016-Jul-14 08:33N 39°32' E 002°34'0 0.0
2016-Jul-14 07:33N 39°32' E 002°34'0 0.0
2016-Jul-14 06:33N 39°32' E 002°34'0 0.0
2016-Jul-14 05:33N 39°32' E 002°34'0 0.0
2016-Jul-14 04:33N 39°32' E 002°34'0 0.0
2016-Jul-14 03:33N 39°32' E 002°34'0 0.0
2016-Jul-14 02:33N 39°32' E 002°34'0 0.0
2016-Jul-14 01:33N 39°32' E 002°34'0 0.0
2016-Jul-14 00:33N 39°32' E 002°34'0 0.0
2016-Jul-13 23:33N 39°32' E 002°34'0 0.0
2016-Jul-13 22:33N 39°32' E 002°34'0 0.0
2016-Jul-13 21:33N 39°32' E 002°34'0 0.0
2016-Jul-13 20:33N 39°32' E 002°34'0 0.0
2016-Jul-13 19:33N 39°32' E 002°34'0 0.1
2016-Jul-13 18:33N 39°32' E 002°34'5 5.3
2016-Jul-13 17:33N 39°29' E 002°28'1 0.6
2016-Jul-13 16:25N 39°30' E 002°28'0 0.0
2016-Jul-13 15:33N 39°30' E 002°28'0 0.0
2016-Jul-13 14:32N 39°30' E 002°28'0 0.0
2016-Jul-13 13:31N 39°30' E 002°28'2 2.1
2016-Jul-13 12:33N 39°30' E 002°25'8 0.4
2016-Jul-12 16:31N 39°39' E 002°25'1010.3
2016-Jul-12 15:33N 39°44' E 002°35'  
Track history (hours):
 
Tides and Currents Weather Stations Pressure Air Temp Water Temp Dewpoint Dewpoint Depression Visibility Wind Speed Wind Dir Waves Ship Positions

Christina G

Last reported at 2016-Jul-22 15:24 UTC. Time now 2016-Jul-23 09:13 UTC.
Position N 39°34' E 002°38'.

Length 33 m; draft 2.5 m.

MMSI: 319032100.

Date/timePositionNaut miles runAvg speedWind from/ knotsBaromVisibWave heightAir tempDewpointWater temp
2016-Jul-22 15:24N 39°34' E 002°38'0 0.0
2016-Jul-22 14:33N 39°34' E 002°38'8 8.1
2016-Jul-22 13:33N 39°27' E 002°32'9 1.2
2016-Jul-22 06:20N 39°32' E 002°22'1 0.1
2016-Jul-21 23:30N 39°32' E 002°23'0 0.0
2016-Jul-21 21:30N 39°32' E 002°23'0 0.0
2016-Jul-21 15:29N 39°32' E 002°23'4 4.1
2016-Jul-21 14:27N 39°37' E 002°21'17 8.9
2016-Jul-21 12:33N 39°46' E 002°39'0 0.0
2016-Jul-21 11:33N 39°46' E 002°39'4 3.8
2016-Jul-21 10:33N 39°49' E 002°42'2 0.1
2016-Jul-20 17:33N 39°48' E 002°41'0 0.0
2016-Jul-20 16:33N 39°48' E 002°41'4 0.7
2016-Jul-20 11:14N 39°45' E 002°37'2 0.1
2016-Jul-19 18:11N 39°44' E 002°35'6 9.2
2016-Jul-19 17:32N 39°41' E 002°29'7 1.3
2016-Jul-19 12:32N 39°37' E 002°22'44 5.5
2016-Jul-19 04:31N 39°10' E 001°37'6 6.5
2016-Jul-19 03:33N 39°06' E 001°30'0 0.0
2016-Jul-19 01:21N 39°06' E 001°30'0 0.0
2016-Jul-19 00:30N 39°06' E 001°30'0 0.0
2016-Jul-18 23:33N 39°06' E 001°30'0 0.0
2016-Jul-18 22:32N 39°06' E 001°30'0 0.0
2016-Jul-18 21:32N 39°06' E 001°30'0 0.0
2016-Jul-18 20:20N 39°06' E 001°30'0 0.0
2016-Jul-18 19:30N 39°06' E 001°30'0 0.0
2016-Jul-18 18:16N 39°06' E 001°30'17 0.8
2016-Jul-17 20:17N 38°52' E 001°19'0 0.0
2016-Jul-17 19:33N 38°52' E 001°19'12 1.1
2016-Jul-17 09:07N 38°53' E 001°34'610.9
2016-Jul-17 08:33N 38°57' E 001°41'1110.6
2016-Jul-17 07:31N 39°03' E 001°52'1010.5
2016-Jul-17 06:33N 39°10' E 002°02'2110.6
2016-Jul-17 04:33N 39°24' E 002°23'7 0.4
2016-Jul-16 12:06N 39°27' E 002°30'4 8.1
2016-Jul-16 11:33N 39°30' E 002°35'4 4.4
2016-Jul-16 10:33N 39°34' E 002°38'0 0.0
2016-Jul-14 14:33N 39°34' E 002°38'1 1.1
2016-Jul-14 13:33N 39°33' E 002°38'3 3.0
2016-Jul-14 12:33N 39°32' E 002°35'0 0.0
2016-Jul-14 11:33N 39°32' E 002°35'0 0.0
2016-Jul-14 10:33N 39°32' E 002°35'1 0.5
2016-Jul-14 09:33N 39°32' E 002°34'0 0.0
2016-Jul-14 08:33N 39°32' E 002°34'0 0.0
2016-Jul-14 07:33N 39°32' E 002°34'0 0.0
2016-Jul-14 06:33N 39°32' E 002°34'0 0.0
2016-Jul-14 05:33N 39°32' E 002°34'0 0.0
2016-Jul-14 04:33N 39°32' E 002°34'0 0.0
2016-Jul-14 03:33N 39°32' E 002°34'0 0.0
2016-Jul-14 02:33N 39°32' E 002°34'0 0.0
2016-Jul-14 01:33N 39°32' E 002°34'0 0.0
2016-Jul-14 00:33N 39°32' E 002°34'0 0.0
2016-Jul-13 23:33N 39°32' E 002°34'0 0.0
2016-Jul-13 22:33N 39°32' E 002°34'0 0.0
2016-Jul-13 21:33N 39°32' E 002°34'0 0.0
2016-Jul-13 20:33N 39°32' E 002°34'0 0.0
2016-Jul-13 19:33N 39°32' E 002°34'0 0.1
2016-Jul-13 18:33N 39°32' E 002°34'5 5.3
2016-Jul-13 17:33N 39°29' E 002°28'1 0.6
2016-Jul-13 16:25N 39°30' E 002°28'0 0.0
2016-Jul-13 15:33N 39°30' E 002°28'0 0.0
2016-Jul-13 14:32N 39°30' E 002°28'0 0.0
2016-Jul-13 13:31N 39°30' E 002°28'2 2.1
2016-Jul-13 12:33N 39°30' E 002°25'8 0.4
2016-Jul-12 16:31N 39°39' E 002°25'1010.3
2016-Jul-12 15:33N 39°44' E 002°35'  

Dump ship's entire track history